• Join FlightAware (Why Join?)
  • Login
  • US Flag 
07:02PM EDT


 

Airport Tracker/Info


-or-


 

Live Flight TrackerFlight Track Log ✈ N441R ✈ 28-Jul-2013 ✈ KJZI - KCLT

Flight Track Log - Related Links

Times and Time Zones

All times are in EDT time to prevent confusion due to time zone crossing. See the N441R flight status page for this flight to view local times or setup timezone preferences in your user account.

Time Position Orientation Groundspeed Altitude Reporting Facility
EDT Latitude Longitude Course Direction KTS MPH feet Rate Location/Type
12:40PM 32.7961 -80.0433 354° North 169 194 4,900  Level Jacksonville Center
12:41PM 32.8464 -80.0492 354° North 180 207 7,100 2,100 Climbing Jacksonville Center
12:42PM 32.9006 -80.0450 North 180 207 9,100 1,800 Climbing Jacksonville Center
12:43PM 32.9589 -80.0331 10° North 187 215 10,800 1,800 Climbing Jacksonville Center
12:44PM 33.0214 -80.0261 North 206 237 12,700 1,920 Climbing Jacksonville Center
12:45PM 33.0817 -80.0194 North 212 244 14,700 1,980 Climbing Jacksonville Center
12:46PM 33.1419 -80.0100 North 218 251 16,700 1,500 Climbing Jacksonville Center
12:47PM 33.2044 -80.0031 North 218 251 17,800 600 Climbing Jacksonville Center
12:48PM 33.2772 -79.9956 North 234 269 18,000 60 Climbing Jacksonville Center
12:49PM 33.3542 -79.9856 North 256 295 18,000  Level Jacksonville Center
12:50PM 33.4292 -79.9758 North 282 325 18,000  Level Jacksonville Center
12:51PM 33.5247 -79.9625 North 289 333 18,000 -60 Level Jacksonville Center
12:52PM 33.6039 -79.9550 North 289 333 17,900 -300 Descending Jacksonville Center
12:53PM 33.6892 -79.9422 North 289 333 17,500 -480 Descending Jacksonville Center
12:54PM 33.7725 -79.9344 North 289 333 17,000 -540 Descending Jacksonville Center
12:55PM 33.8556 -79.9217 North 289 333 16,500 -540 Descending Jacksonville Center
12:56PM 33.9431 -79.9111 North 294 338 16,000 -540 Descending Jacksonville Center
12:57PM 34.0261 -79.8983 North 294 338 15,500 -660 Descending Jacksonville Center
12:58PM 34.1081 -79.9181 349° North 294 338 14,700 -840 Descending Jacksonville Center
12:59PM 34.1822 -79.9683 331° Northwest 289 333 13,900 -840 Descending Jacksonville Center
01:00PM 34.2564 -80.0136 333° Northwest 294 338 13,100 -900 Descending Jacksonville Center
01:01PM 34.3283 -80.0614 331° Northwest 294 338 12,100 -1,260 Descending Jacksonville Center
01:02PM 34.4003 -80.1094 331° Northwest 299 344 10,600 -1,080 Descending Jacksonville Center
01:03PM 34.4681 -80.1550 331° Northwest 292 336 10,000 -240 Descending Jacksonville Center
01:05PM 34.5697 -80.2247 331° Northwest 268 308 10,000  Level Atlanta Center
01:06PM 34.6528 -80.2764 333° Northwest 267 307 10,000  Level Atlanta Center
01:07PM 34.7008 -80.3425 311° West 262 302 10,000  Level Atlanta Center
01:08PM 34.7483 -80.4011 315° West 265 305 10,100  Climbing Atlanta Center
01:09PM 34.8025 -80.4694 314° West 267 307 10,000 -240 Descending Atlanta Center
01:10PM 34.8589 -80.5406 314° West 269 310 9,600 -420 Descending Atlanta Center
01:11PM 34.9106 -80.6017 316° Northwest 274 315 9,200 -240 Descending Atlanta Center
01:13PM 34.9916 -80.6999 313° West  Level FlightAware Approximate
01:13PM 35.0186 -80.7367 313° West 252 290 9,000  Level Atlanta Center
01:14PM 35.0703 -80.7931 318° Northwest 257 296 9,000  Level Atlanta Center
01:15PM 35.1433 -80.7903 North 273 314 9,000 -720 Level Atlanta Center
01:16PM 35.2250 -80.8022 353° North 279 321 7,600 -1,740 Descending Atlanta Center
01:17PM 35.2964 -80.8172 350° North 255 293 5,500 -1,500 Descending Atlanta Center
01:18PM 35.3572 -80.8353 346° North 214 246 4,600 -780 Descending Atlanta Center
01:19PM 35.4158 -80.8456 352° North 215 247 4,000 -300 Descending Atlanta Center
01:20PM 35.4747 -80.8611 348° North 224 258 4,100  Climbing Atlanta Center
01:21PM 35.5336 -80.8794 346° North 214 246 4,000 -60 Descending Atlanta Center
01:22PM 35.5269 -80.9408 262° West 173 199 4,000  Level Atlanta Center
01:23PM 35.4689 -80.9583 194° South 176 203 4,100  Climbing Atlanta Center
01:24PM 35.4167 -80.9528 175° South 190 219 4,000 -240 Descending Atlanta Center
01:25PM 35.3664 -80.9494 177° South 186 214 3,700 -720 Descending Atlanta Center
01:26PM 35.3164 -80.9461 177° South 194 223 2,700 -1,080 Descending Atlanta Center
01:27PM 35.2578 -80.9433 178° South 181 208 1,600 -1,020 Descending Atlanta Center